ADDS METAR Data INFO
IDs: Format: Raw Decoded Include TAF

Data at: 1009 UTC 12 Dec 2017

KEZF 120955Z AUTO 19005KT 10SM CLR 05/00 A2968 RMK AO2 T00450001
KEZF 120935Z AUTO 18004KT 10SM CLR 05/00 A2968 RMK AO2 T00450001
KEZF 120915Z AUTO 19005KT 10SM CLR 05/00 A2969 RMK AO2 T00450000
KEZF 120855Z AUTO 18006KT 10SM CLR 05/00 A2970 RMK AO2 T00450000
KEZF 120835Z AUTO 18006KT 10SM CLR 05/00 A2971 RMK AO2 T00450000
KEZF 120815Z AUTO 19007G14KT 10SM CLR 05/00 A2973 RMK AO2 T00450000
KEZF 120755Z AUTO 19008KT 10SM CLR 04/00 A2974 RMK AO2 T00430000
KEZF 120735Z AUTO 18009KT 10SM CLR 04/00 A2975 RMK AO2 T00430000
KEZF 120715Z AUTO 18007KT 10SM CLR 04/00 A2976 RMK AO2 T00410000
KEZF 120655Z AUTO 18007KT 10SM CLR 04/00 A2978 RMK AO2 T00410000
KEZF 120635Z AUTO 18007KT 10SM CLR 04/00 A2979 RMK AO2 T00420000
KEZF 120615Z AUTO 18006KT 10SM CLR 04/00 A2980 RMK AO2 T00410000
KEZF 120555Z AUTO 19008KT 10SM CLR 04/00 A2980 RMK AO2 T00370000 10049 20010 401071020
KEZF 120535Z AUTO 17008KT 10SM CLR 04/00 A2981 RMK AO2 T00351001
KEZF 120515Z AUTO 16008KT 10SM CLR 03/00 A2983 RMK AO2 T00320000
KEZF 120455Z AUTO 16008KT 10SM CLR 03/00 A2984 RMK AO2 T00271003
KEZF 120435Z AUTO 15008KT 10SM CLR 02/M01 A2985 RMK AO2 T00201007
KEZF 120415Z AUTO 15006KT 10SM CLR 02/M01 A2987 RMK AO2 T00221010
KEZF 120355Z AUTO 14006KT 10SM CLR 02/M01 A2988 RMK AO2 T00231010
KEZF 120335Z AUTO 14006KT 10SM CLR 02/M01 A2990 RMK AO2 T00201012
KEZF 120315Z AUTO 14006KT 10SM CLR 02/M01 A2991 RMK AO2 T00231012
KEZF 120255Z AUTO 15005KT 10SM CLR 02/M01 A2992 RMK AO2 T00211011
KEZF 120235Z AUTO 15007KT 10SM CLR 01/M02 A2992 RMK AO2 T00101016
KEZF 120215Z AUTO 14006KT 10SM CLR 03/M01 A2993 RMK AO2 T00301011
KEZF 120155Z AUTO 15006KT 10SM CLR 03/M01 A2994 RMK AO2 T00321011
KEZF 120135Z AUTO 15006KT 10SM CLR 03/M01 A2994 RMK AO2 T00261009
KEZF 120115Z AUTO 15006KT 10SM CLR 05/M01 A2995 RMK AO2 T00451008
KEZF 120055Z AUTO 16006KT 10SM CLR 05/M01 A2995 RMK AO2 T00461007
KEZF 120035Z AUTO 16006KT 10SM CLR 05/M01 A2995 RMK AO2 T00451007
KEZF 120015Z AUTO 15006KT 10SM CLR 05/M01 A2995 RMK AO2 T00451010
KEZF 112355Z AUTO 16006KT 10SM CLR 05/M01 A2996 RMK AO2 T00501013 10107 20048
KEZF 112335Z AUTO 16005KT 10SM CLR 06/M01 A2996 RMK AO2 T00561014
KEZF 112315Z AUTO 15005KT 10SM CLR 06/M02 A2996 RMK AO2 T00591016
KEZF 112255Z AUTO 16006KT 10SM CLR 05/M01 A2996 RMK AO2 T00511015
KEZF 112235Z AUTO 16005KT 10SM CLR 06/M02 A2996 RMK AO2 T00601016
KEZF 112215Z AUTO 16006KT 10SM CLR 07/M02 A2996 RMK AO2 T00691017
KEZF 112155Z AUTO 18004KT 10SM CLR 08/M02 A2998 RMK AO2 T00761018
KEZF 112135Z AUTO 15005KT 10SM CLR 09/M02 A2998 RMK AO2 T00851019
KEZF 112115Z AUTO 20006KT 10SM CLR 10/M02 A2998 RMK AO2 T00961021
KEZF 112055Z AUTO 18008KT 10SM CLR 10/M03 A2999 RMK AO2 T01001026
KEZF 112035Z AUTO 18009KT 10SM CLR 10/M03 A2999 RMK AO2 T01031027
KEZF 112015Z AUTO 19008KT 10SM CLR 11/M03 A2999 RMK AO2 T01051027
KEZF 111955Z AUTO 23008KT 10SM CLR 11/M03 A3000 RMK AO2 T01061028
KEZF 111935Z AUTO 22005KT 10SM CLR 11/M03 A3000 RMK AO2 T01051026
KEZF 111915Z AUTO 24004KT 10SM CLR 10/M03 A2999 RMK AO2 T01031031
KEZF 111855Z AUTO 00000KT 10SM CLR 10/M03 A2999 RMK AO2 T00991033
KEZF 111835Z AUTO 15003KT 10SM CLR 10/M03 A2999 RMK AO2 T01021030
KEZF 111815Z AUTO 27005KT 10SM CLR 10/M03 A2999 RMK AO2 T01011027
KEZF 111755Z AUTO 31004KT 10SM CLR 10/M03 A3001 RMK AO2 T00961026 10099 21020
KEZF 111735Z AUTO 21004KT 10SM CLR 09/M03 A3001 RMK AO2 T00911031
KEZF 111715Z AUTO 26006KT 210V280 10SM CLR 09/M03 A3003 RMK AO2 T00911032
KEZF 111655Z AUTO 21007KT 10SM CLR 09/M03 A3005 RMK AO2 T00881034
KEZF 111635Z AUTO 26007KT 10SM CLR 09/M03 A3007 RMK AO2 T00891030
KEZF 111615Z AUTO 24005KT 10SM CLR 09/M03 A3009 RMK AO2 T00851027
KEZF 111555Z AUTO 25007KT 10SM CLR 08/M03 A3010 RMK AO2 T00811026
KEZF 111535Z AUTO 24005KT 10SM CLR 07/M02 A3010 RMK AO2 T00731024
KEZF 111515Z AUTO 22003KT 10SM CLR 06/M02 A3011 RMK AO2 T00641023
KEZF 111455Z AUTO 00000KT 10SM CLR 05/M02 A3011 RMK AO2 T00511023
KEZF 111435Z AUTO 00000KT 10SM CLR 04/M02 A3010 RMK AO2 T00381020
KEZF 111415Z AUTO 00000KT 10SM CLR 02/M02 A3010 RMK AO2 T00241023
KEZF 111355Z AUTO 00000KT 10SM CLR 02/M02 A3009 RMK AO2 T00181020
KEZF 111335Z AUTO 00000KT 10SM CLR 01/M01 A3009 RMK AO2 T00051015
KEZF 111315Z AUTO 11004KT 10SM CLR M01/M02 A3009 RMK AO2 T10081022
KEZF 111255Z AUTO 00000KT 10SM CLR M02/M03 A3009 RMK AO2 T10161026
KEZF 111235Z AUTO 00000KT 10SM CLR M01/M03 A3008 RMK AO2 T10101028
KEZF 111215Z AUTO 27003KT 10SM CLR M01/M03 A3008 RMK AO2 T10101028
KEZF 111155Z AUTO 24003KT 10SM SCT065 M01/M03 A3007 RMK AO2 70008 T10151030 10025 21017
KEZF 111135Z AUTO 00000KT 10SM SCT065 M02/M03 A3007 RMK AO2 T10161032
KEZF 111115Z AUTO 00000KT 10SM CLR 00/M03 A3006 RMK AO2 T00001030
KEZF 111055Z AUTO 00000KT 10SM CLR 01/M03 A3006 RMK AO2 T00061028
KEZF 111035Z AUTO 00000KT 10SM SCT070 01/M03 A3005 RMK AO2 T00081027
KEZF 111015Z AUTO 00000KT 10SM CLR 01/M03 A3004 RMK AO2 T00121027
KEZF 110955Z AUTO 00000KT 10SM CLR 01/M03 A3004 RMK AO2 T00141027
KEZF 110935Z AUTO 00000KT 10SM CLR 02/M02 A3004 RMK AO2 T00171025
KEZF 110915Z AUTO 00000KT 10SM CLR 02/M02 A3003 RMK AO2 T00201022
KEZF 110855Z AUTO 00000KT 10SM CLR 02/M02 A3003 RMK AO2 T00201020
KEZF 110835Z AUTO 00000KT 10SM CLR 02/M02 A3003 RMK AO2 T00211018
KEZF 110815Z AUTO 00000KT 10SM SCT120 02/M02 A3004 RMK AO2 T00221018
KEZF 110755Z AUTO 00000KT 10SM OVC120 02/M02 A3004 RMK AO2 T00231019
KEZF 110735Z AUTO 00000KT 10SM BKN120 02/M02 A3004 RMK AO2 T00221017
KEZF 110715Z AUTO 19003KT 10SM BKN100 BKN120 02/M02 A3004 RMK AO2 T00221016
KEZF 110655Z AUTO 00000KT 10SM OVC100 02/M02 A3004 RMK AO2 T00231019
KEZF 110635Z AUTO 19003KT 10SM OVC100 02/M02 A3003 RMK AO2 T00221016
KEZF 110615Z AUTO 20003KT 10SM OVC100 02/M02 A3004 RMK AO2 T00241019
KEZF 110555Z AUTO 18003KT 10SM OVC090 02/M02 A3004 RMK AO2 T00241019 10025 20000 400581026
KEZF 110535Z AUTO 21004KT 10SM OVC090 02/M02 A3005 RMK AO2 T00231019
KEZF 110515Z AUTO 22007KT 10SM BKN085 BKN100 02/M02 A3006 RMK AO2 T00221020
KEZF 110455Z AUTO 22005KT 10SM BKN100 02/M02 A3006 RMK AO2 T00211019
KEZF 110435Z AUTO 20008KT 10SM OVC100 02/M02 A3006 RMK AO2 T00211020
KEZF 110415Z AUTO 20007KT 10SM OVC100 02/M02 A3006 RMK AO2 T00201020
KEZF 110355Z AUTO 21005KT 10SM OVC100 02/M02 A3006 RMK AO2 T00201020
KEZF 110335Z AUTO 20006KT 10SM OVC100 02/M02 A3006 RMK AO2 T00191020
KEZF 110315Z AUTO 20006KT 10SM OVC100 02/M02 A3007 RMK AO2 T00171020
KEZF 110255Z AUTO 18004KT 10SM OVC100 02/M02 A3007 RMK AO2 T00171020
KEZF 110235Z AUTO 20005KT 10SM OVC100 02/M02 A3007 RMK AO2 T00181022
KEZF 110215Z AUTO 20006KT 10SM BKN100 BKN120 02/M02 A3007 RMK AO2 T00181021
KEZF 110155Z AUTO 20006KT 10SM BKN100 02/M02 A3007 RMK AO2 T00171020
KEZF 110135Z AUTO 19007KT 10SM OVC100 02/M02 A3007 RMK AO2 T00201021
KEZF 110115Z AUTO 21007KT 10SM BKN100 02/M02 A3007 RMK AO2 T00201020
KEZF 110055Z AUTO 20006KT 10SM OVC100 02/M02 A3008 RMK AO2 T00191020
KEZF 110035Z AUTO 20008KT 10SM BKN110 02/M02 A3008 RMK AO2 T00151020
KEZF 110015Z AUTO 19007KT 10SM SCT110 01/M02 A3007 RMK AO2 T00121017
KEZF 102355Z AUTO 19005KT 10SM CLR 00/M02 A3007 RMK AO2 T00001023 10058 20000
KEZF 102335Z AUTO 19004KT 10SM CLR 01/M02 A3007 RMK AO2 T00081021
KEZF 102315Z AUTO 18003KT 10SM CLR 01/M03 A3007 RMK AO2 T00081026
KEZF 102255Z AUTO 19006KT 10SM CLR 02/M03 A3007 RMK AO2 T00201026
KEZF 102235Z AUTO 19005KT 10SM CLR 01/M03 A3007 RMK AO2 T00131031
KEZF 102215Z AUTO 22004KT 10SM CLR 04/M04 A3006 RMK AO2 T00351042